sensor_id;sensor_type;location;lat;lon;timestamp;temperature;humidity
70734;DHT22;58320;48.804;9.252;2023-04-24T00:00:16;11.10;78.00
70734;DHT22;58320;48.804;9.252;2023-04-24T00:02:43;11.20;79.00
70734;DHT22;58320;48.804;9.252;2023-04-24T00:05:12;11.20;78.60
70734;DHT22;58320;48.804;9.252;2023-04-24T00:07:43;11.20;78.60
70734;DHT22;58320;48.804;9.252;2023-04-24T00:10:09;11.20;78.60
70734;DHT22;58320;48.804;9.252;2023-04-24T00:12:36;11.20;79.00
70734;DHT22;58320;48.804;9.252;2023-04-24T00:15:02;11.20;78.10
70734;DHT22;58320;48.804;9.252;2023-04-24T00:17:29;11.30;76.90
70734;DHT22;58320;48.804;9.252;2023-04-24T00:19:54;11.30;77.40
70734;DHT22;58320;48.804;9.252;2023-04-24T00:22:27;11.30;77.40
70734;DHT22;58320;48.804;9.252;2023-04-24T00:24:53;11.30;77.20
70734;DHT22;58320;48.804;9.252;2023-04-24T00:27:19;11.40;76.20
70734;DHT22;58320;48.804;9.252;2023-04-24T00:29:45;11.40;76.10
70734;DHT22;58320;48.804;9.252;2023-04-24T00:32:11;11.40;76.00
70734;DHT22;58320;48.804;9.252;2023-04-24T00:34:37;11.40;76.10
70734;DHT22;58320;48.804;9.252;2023-04-24T00:37:02;11.40;76.30
70734;DHT22;58320;48.804;9.252;2023-04-24T00:39:28;11.40;76.30
70734;DHT22;58320;48.804;9.252;2023-04-24T00:41:54;11.40;75.70
70734;DHT22;58320;48.804;9.252;2023-04-24T00:44:20;11.40;75.90
70734;DHT22;58320;48.804;9.252;2023-04-24T00:46:46;11.40;76.20
70734;DHT22;58320;48.804;9.252;2023-04-24T00:49:18;11.40;75.60
70734;DHT22;58320;48.804;9.252;2023-04-24T00:51:44;11.40;75.60
70734;DHT22;58320;48.804;9.252;2023-04-24T00:54:11;11.40;76.00
70734;DHT22;58320;48.804;9.252;2023-04-24T00:56:37;11.40;75.50
70734;DHT22;58320;48.804;9.252;2023-04-24T00:59:04;11.40;75.10
70734;DHT22;58320;48.804;9.252;2023-04-24T01:01:30;11.50;75.20
70734;DHT22;58320;48.804;9.252;2023-04-24T01:03:56;11.50;75.30
70734;DHT22;58320;48.804;9.252;2023-04-24T01:06:23;11.50;73.90
70734;DHT22;58320;48.804;9.252;2023-04-24T01:08:54;11.60;74.20
70734;DHT22;58320;48.804;9.252;2023-04-24T01:11:21;11.60;73.80
70734;DHT22;58320;48.804;9.252;2023-04-24T01:13:47;11.60;74.10
70734;DHT22;58320;48.804;9.252;2023-04-24T01:16:14;11.70;74.00
70734;DHT22;58320;48.804;9.252;2023-04-24T01:18:43;11.60;73.80
70734;DHT22;58320;48.804;9.252;2023-04-24T01:21:09;11.70;73.70
70734;DHT22;58320;48.804;9.252;2023-04-24T01:23:37;11.60;73.90
70734;DHT22;58320;48.804;9.252;2023-04-24T01:26:03;11.70;74.20
70734;DHT22;58320;48.804;9.252;2023-04-24T01:28:29;11.60;73.60
70734;DHT22;58320;48.804;9.252;2023-04-24T01:30:55;11.70;73.80
70734;DHT22;58320;48.804;9.252;2023-04-24T01:33:22;11.70;73.90
70734;DHT22;58320;48.804;9.252;2023-04-24T01:35:48;11.70;73.50
70734;DHT22;58320;48.804;9.252;2023-04-24T01:38:14;11.70;73.00
70734;DHT22;58320;48.804;9.252;2023-04-24T01:40:40;11.70;72.70
70734;DHT22;58320;48.804;9.252;2023-04-24T01:43:06;11.70;73.00
70734;DHT22;58320;48.804;9.252;2023-04-24T01:45:32;11.70;73.40
70734;DHT22;58320;48.804;9.252;2023-04-24T01:47:58;11.60;74.60
70734;DHT22;58320;48.804;9.252;2023-04-24T01:50:25;11.50;74.20
70734;DHT22;58320;48.804;9.252;2023-04-24T01:52:51;11.50;74.80
70734;DHT22;58320;48.804;9.252;2023-04-24T01:55:17;11.50;74.80
70734;DHT22;58320;48.804;9.252;2023-04-24T01:57:43;11.50;74.70
70734;DHT22;58320;48.804;9.252;2023-04-24T02:00:09;11.50;74.60
70734;DHT22;58320;48.804;9.252;2023-04-24T02:02:36;11.50;74.60
70734;DHT22;58320;48.804;9.252;2023-04-24T02:05:03;11.50;74.80
70734;DHT22;58320;48.804;9.252;2023-04-24T02:07:31;11.50;75.30
70734;DHT22;58320;48.804;9.252;2023-04-24T02:09:58;11.40;75.40
70734;DHT22;58320;48.804;9.252;2023-04-24T02:12:23;11.30;75.60
70734;DHT22;58320;48.804;9.252;2023-04-24T02:14:49;11.30;76.00
70734;DHT22;58320;48.804;9.252;2023-04-24T02:17:15;11.30;76.00
70734;DHT22;58320;48.804;9.252;2023-04-24T02:19:41;11.30;76.80
70734;DHT22;58320;48.804;9.252;2023-04-24T02:22:07;11.20;77.00
70734;DHT22;58320;48.804;9.252;2023-04-24T02:24:33;11.20;77.20
70734;DHT22;58320;48.804;9.252;2023-04-24T02:26:58;11.20;77.20
70734;DHT22;58320;48.804;9.252;2023-04-24T02:29:25;11.20;76.90
70734;DHT22;58320;48.804;9.252;2023-04-24T02:31:51;11.20;77.30
70734;DHT22;58320;48.804;9.252;2023-04-24T02:34:16;11.20;77.00
70734;DHT22;58320;48.804;9.252;2023-04-24T02:36:42;11.20;77.20
70734;DHT22;58320;48.804;9.252;2023-04-24T02:39:08;11.30;77.20
70734;DHT22;58320;48.804;9.252;2023-04-24T02:41:33;11.20;76.90
70734;DHT22;58320;48.804;9.252;2023-04-24T02:43:59;11.20;77.10
70734;DHT22;58320;48.804;9.252;2023-04-24T02:46:25;11.20;77.50
70734;DHT22;58320;48.804;9.252;2023-04-24T02:48:51;11.30;77.30
70734;DHT22;58320;48.804;9.252;2023-04-24T02:51:17;11.30;78.60
70734;DHT22;58320;48.804;9.252;2023-04-24T02:53:43;11.10;84.20
70734;DHT22;58320;48.804;9.252;2023-04-24T02:56:08;10.80;87.80
70734;DHT22;58320;48.804;9.252;2023-04-24T02:58:37;10.50;92.10
70734;DHT22;58320;48.804;9.252;2023-04-24T03:01:03;10.30;94.70
70734;DHT22;58320;48.804;9.252;2023-04-24T03:03:30;10.10;96.20
70734;DHT22;58320;48.804;9.252;2023-04-24T03:05:56;10.00;98.10
70734;DHT22;58320;48.804;9.252;2023-04-24T03:08:22;9.90;98.90
70734;DHT22;58320;48.804;9.252;2023-04-24T03:10:48;9.90;99.90
70734;DHT22;58320;48.804;9.252;2023-04-24T03:13:15;9.80;99.90
70734;DHT22;58320;48.804;9.252;2023-04-24T03:15:42;9.80;99.90
70734;DHT22;58320;48.804;9.252;2023-04-24T03:18:07;9.80;99.90
70734;DHT22;58320;48.804;9.252;2023-04-24T03:20:33;9.80;99.90
70734;DHT22;58320;48.804;9.252;2023-04-24T03:22:59;9.70;99.90
70734;DHT22;58320;48.804;9.252;2023-04-24T03:25:25;9.70;99.90
70734;DHT22;58320;48.804;9.252;2023-04-24T03:27:51;9.70;99.90
70734;DHT22;58320;48.804;9.252;2023-04-24T03:30:16;9.60;99.90
70734;DHT22;58320;48.804;9.252;2023-04-24T03:32:42;9.60;99.90
70734;DHT22;58320;48.804;9.252;2023-04-24T03:35:08;9.60;99.90
70734;DHT22;58320;48.804;9.252;2023-04-24T03:37:34;9.60;99.90
70734;DHT22;58320;48.804;9.252;2023-04-24T03:40:01;9.50;99.90
70734;DHT22;58320;48.804;9.252;2023-04-24T03:42:27;9.60;99.90
70734;DHT22;58320;48.804;9.252;2023-04-24T03:44:53;9.60;99.90
70734;DHT22;58320;48.804;9.252;2023-04-24T03:47:19;9.60;99.90
70734;DHT22;58320;48.804;9.252;2023-04-24T03:49:44;9.60;99.90
70734;DHT22;58320;48.804;9.252;2023-04-24T03:52:10;9.70;99.90
70734;DHT22;58320;48.804;9.252;2023-04-24T03:54:36;9.60;99.90
70734;DHT22;58320;48.804;9.252;2023-04-24T03:57:02;9.70;99.90
70734;DHT22;58320;48.804;9.252;2023-04-24T03:59:30;9.70;98.70
70734;DHT22;58320;48.804;9.252;2023-04-24T04:01:55;9.70;97.70
70734;DHT22;58320;48.804;9.252;2023-04-24T04:04:21;9.80;94.60
70734;DHT22;58320;48.804;9.252;2023-04-24T04:06:47;9.80;93.20
70734;DHT22;58320;48.804;9.252;2023-04-24T04:09:13;9.80;92.70
70734;DHT22;58320;48.804;9.252;2023-04-24T04:11:39;9.80;93.20
70734;DHT22;58320;48.804;9.252;2023-04-24T04:14:05;9.80;92.00
70734;DHT22;58320;48.804;9.252;2023-04-24T04:16:31;9.90;91.20
70734;DHT22;58320;48.804;9.252;2023-04-24T04:18:57;10.00;91.40
70734;DHT22;58320;48.804;9.252;2023-04-24T04:21:22;10.00;91.00
70734;DHT22;58320;48.804;9.252;2023-04-24T04:23:48;10.10;91.30
70734;DHT22;58320;48.804;9.252;2023-04-24T04:26:14;10.10;91.20
70734;DHT22;58320;48.804;9.252;2023-04-24T04:28:40;10.10;91.10
70734;DHT22;58320;48.804;9.252;2023-04-24T04:31:06;10.10;91.30
70734;DHT22;58320;48.804;9.252;2023-04-24T04:33:33;10.20;90.60
70734;DHT22;58320;48.804;9.252;2023-04-24T04:35:59;10.10;90.90
70734;DHT22;58320;48.804;9.252;2023-04-24T04:38:25;10.10;88.20
70734;DHT22;58320;48.804;9.252;2023-04-24T04:40:55;10.00;89.60
70734;DHT22;58320;48.804;9.252;2023-04-24T04:43:24;10.00;90.30
70734;DHT22;58320;48.804;9.252;2023-04-24T04:45:51;9.90;89.00
70734;DHT22;58320;48.804;9.252;2023-04-24T04:48:17;9.90;87.10
70734;DHT22;58320;48.804;9.252;2023-04-24T04:50:44;9.80;84.60
70734;DHT22;58320;48.804;9.252;2023-04-24T04:53:10;9.70;86.10
70734;DHT22;58320;48.804;9.252;2023-04-24T04:55:36;9.50;89.00
70734;DHT22;58320;48.804;9.252;2023-04-24T04:58:02;9.30;91.90
70734;DHT22;58320;48.804;9.252;2023-04-24T05:00:29;9.20;93.20
70734;DHT22;58320;48.804;9.252;2023-04-24T05:02:59;9.00;94.70
70734;DHT22;58320;48.804;9.252;2023-04-24T05:05:25;9.00;96.00
70734;DHT22;58320;48.804;9.252;2023-04-24T05:07:51;9.00;96.80
70734;DHT22;58320;48.804;9.252;2023-04-24T05:10:17;9.00;96.50
70734;DHT22;58320;48.804;9.252;2023-04-24T05:12:42;9.00;96.80
70734;DHT22;58320;48.804;9.252;2023-04-24T05:15:08;9.00;97.00
70734;DHT22;58320;48.804;9.252;2023-04-24T05:17:35;9.00;97.00
70734;DHT22;58320;48.804;9.252;2023-04-24T05:20:02;9.10;95.50
70734;DHT22;58320;48.804;9.252;2023-04-24T05:22:31;9.10;95.40
70734;DHT22;58320;48.804;9.252;2023-04-24T05:24:57;9.10;93.20
70734;DHT22;58320;48.804;9.252;2023-04-24T05:27:23;9.20;89.40
70734;DHT22;58320;48.804;9.252;2023-04-24T05:29:48;9.40;85.20
70734;DHT22;58320;48.804;9.252;2023-04-24T05:32:14;9.50;83.90
70734;DHT22;58320;48.804;9.252;2023-04-24T05:34:40;9.60;83.40
70734;DHT22;58320;48.804;9.252;2023-04-24T05:37:06;9.60;83.50
70734;DHT22;58320;48.804;9.252;2023-04-24T05:39:34;9.70;82.80
70734;DHT22;58320;48.804;9.252;2023-04-24T05:42:00;9.70;81.80
70734;DHT22;58320;48.804;9.252;2023-04-24T05:44:27;9.70;82.00
70734;DHT22;58320;48.804;9.252;2023-04-24T05:46:53;9.80;81.80
70734;DHT22;58320;48.804;9.252;2023-04-24T05:49:20;9.80;82.20
70734;DHT22;58320;48.804;9.252;2023-04-24T05:51:46;9.90;82.10
70734;DHT22;58320;48.804;9.252;2023-04-24T05:54:11;9.90;82.20
70734;DHT22;58320;48.804;9.252;2023-04-24T05:56:38;10.00;79.50
70734;DHT22;58320;48.804;9.252;2023-04-24T05:59:04;10.00;79.40
70734;DHT22;58320;48.804;9.252;2023-04-24T06:01:30;10.10;80.10
70734;DHT22;58320;48.804;9.252;2023-04-24T06:03:56;10.10;80.40
70734;DHT22;58320;48.804;9.252;2023-04-24T06:06:23;10.20;80.50
70734;DHT22;58320;48.804;9.252;2023-04-24T06:08:49;10.20;80.10
70734;DHT22;58320;48.804;9.252;2023-04-24T06:11:15;10.30;78.50
70734;DHT22;58320;48.804;9.252;2023-04-24T06:13:41;10.20;78.50
70734;DHT22;58320;48.804;9.252;2023-04-24T06:16:07;10.20;78.60
70734;DHT22;58320;48.804;9.252;2023-04-24T06:18:33;10.10;78.50
70734;DHT22;58320;48.804;9.252;2023-04-24T06:20:59;10.00;79.20
70734;DHT22;58320;48.804;9.252;2023-04-24T06:23:25;10.10;79.60
70734;DHT22;58320;48.804;9.252;2023-04-24T06:25:51;10.10;78.10
70734;DHT22;58320;48.804;9.252;2023-04-24T06:28:17;10.20;77.00
70734;DHT22;58320;48.804;9.252;2023-04-24T06:30:43;10.40;75.80
70734;DHT22;58320;48.804;9.252;2023-04-24T06:33:09;10.70;75.40
70734;DHT22;58320;48.804;9.252;2023-04-24T06:35:36;10.90;72.60
70734;DHT22;58320;48.804;9.252;2023-04-24T06:38:03;11.10;71.10
70734;DHT22;58320;48.804;9.252;2023-04-24T06:40:29;11.30;71.10
70734;DHT22;58320;48.804;9.252;2023-04-24T06:42:55;11.40;72.80
70734;DHT22;58320;48.804;9.252;2023-04-24T06:45:21;11.60;70.10
70734;DHT22;58320;48.804;9.252;2023-04-24T06:47:47;11.70;70.10
70734;DHT22;58320;48.804;9.252;2023-04-24T06:50:13;11.90;68.60
70734;DHT22;58320;48.804;9.252;2023-04-24T06:52:40;12.00;68.50
70734;DHT22;58320;48.804;9.252;2023-04-24T06:55:06;12.20;67.30
70734;DHT22;58320;48.804;9.252;2023-04-24T06:57:32;12.40;67.40
70734;DHT22;58320;48.804;9.252;2023-04-24T06:59:58;12.60;66.00
70734;DHT22;58320;48.804;9.252;2023-04-24T07:02:24;12.80;64.50
70734;DHT22;58320;48.804;9.252;2023-04-24T07:04:50;12.80;64.40
70734;DHT22;58320;48.804;9.252;2023-04-24T07:07:16;12.70;64.00
70734;DHT22;58320;48.804;9.252;2023-04-24T07:09:42;12.60;64.90
70734;DHT22;58320;48.804;9.252;2023-04-24T07:12:09;12.80;62.90
70734;DHT22;58320;48.804;9.252;2023-04-24T07:14:38;13.20;61.80
70734;DHT22;58320;48.804;9.252;2023-04-24T07:17:04;13.20;61.40
70734;DHT22;58320;48.804;9.252;2023-04-24T07:19:33;13.00;62.30
70734;DHT22;58320;48.804;9.252;2023-04-24T07:22:00;12.70;62.30
70734;DHT22;58320;48.804;9.252;2023-04-24T07:24:26;12.40;63.50
70734;DHT22;58320;48.804;9.252;2023-04-24T07:26:53;12.10;64.60
70734;DHT22;58320;48.804;9.252;2023-04-24T07:29:19;11.90;64.90
70734;DHT22;58320;48.804;9.252;2023-04-24T07:31:46;11.80;65.90
70734;DHT22;58320;48.804;9.252;2023-04-24T07:34:12;11.90;65.40
70734;DHT22;58320;48.804;9.252;2023-04-24T07:36:38;11.90;64.30
70734;DHT22;58320;48.804;9.252;2023-04-24T07:39:04;12.10;65.40
70734;DHT22;58320;48.804;9.252;2023-04-24T07:41:31;12.30;64.70
70734;DHT22;58320;48.804;9.252;2023-04-24T07:43:57;12.50;60.70
70734;DHT22;58320;48.804;9.252;2023-04-24T07:46:23;12.50;60.70
70734;DHT22;58320;48.804;9.252;2023-04-24T07:48:50;12.60;61.40
70734;DHT22;58320;48.804;9.252;2023-04-24T07:51:16;12.90;59.20
70734;DHT22;58320;48.804;9.252;2023-04-24T07:53:43;13.00;56.60
70734;DHT22;58320;48.804;9.252;2023-04-24T07:56:09;12.90;55.50
70734;DHT22;58320;48.804;9.252;2023-04-24T07:58:35;12.90;56.30
70734;DHT22;58320;48.804;9.252;2023-04-24T08:01:01;13.00;55.80
70734;DHT22;58320;48.804;9.252;2023-04-24T08:03:26;13.00;54.40
70734;DHT22;58320;48.804;9.252;2023-04-24T08:05:52;13.00;53.80
70734;DHT22;58320;48.804;9.252;2023-04-24T08:08:21;13.00;53.30
70734;DHT22;58320;48.804;9.252;2023-04-24T08:10:47;13.00;52.90
70734;DHT22;58320;48.804;9.252;2023-04-24T08:13:13;12.90;52.70
70734;DHT22;58320;48.804;9.252;2023-04-24T08:15:39;12.90;54.20
70734;DHT22;58320;48.804;9.252;2023-04-24T08:18:05;12.90;54.30
70734;DHT22;58320;48.804;9.252;2023-04-24T08:20:31;12.90;53.30
70734;DHT22;58320;48.804;9.252;2023-04-24T08:22:57;12.80;53.00
70734;DHT22;58320;48.804;9.252;2023-04-24T08:25:23;12.80;53.50
70734;DHT22;58320;48.804;9.252;2023-04-24T08:27:50;12.70;53.30
70734;DHT22;58320;48.804;9.252;2023-04-24T08:30:16;12.80;53.30
70734;DHT22;58320;48.804;9.252;2023-04-24T08:32:43;12.90;52.70
70734;DHT22;58320;48.804;9.252;2023-04-24T08:35:09;13.00;51.80
70734;DHT22;58320;48.804;9.252;2023-04-24T08:37:35;13.00;51.30
70734;DHT22;58320;48.804;9.252;2023-04-24T08:40:03;13.00;51.80
70734;DHT22;58320;48.804;9.252;2023-04-24T08:42:34;12.90;51.10
70734;DHT22;58320;48.804;9.252;2023-04-24T08:45:01;13.00;52.00
70734;DHT22;58320;48.804;9.252;2023-04-24T08:47:29;13.10;51.60
70734;DHT22;58320;48.804;9.252;2023-04-24T08:49:56;13.50;51.90
70734;DHT22;58320;48.804;9.252;2023-04-24T08:52:22;13.40;50.50
70734;DHT22;58320;48.804;9.252;2023-04-24T08:54:48;13.00;51.20
70734;DHT22;58320;48.804;9.252;2023-04-24T08:57:15;12.70;52.20
70734;DHT22;58320;48.804;9.252;2023-04-24T08:59:42;12.50;52.50
70734;DHT22;58320;48.804;9.252;2023-04-24T09:02:10;12.30;52.40
70734;DHT22;58320;48.804;9.252;2023-04-24T09:04:37;12.30;53.00
70734;DHT22;58320;48.804;9.252;2023-04-24T09:07:04;12.50;53.10
70734;DHT22;58320;48.804;9.252;2023-04-24T09:09:32;12.70;53.00
70734;DHT22;58320;48.804;9.252;2023-04-24T09:11:58;12.90;53.70
70734;DHT22;58320;48.804;9.252;2023-04-24T09:14:26;13.10;52.90
70734;DHT22;58320;48.804;9.252;2023-04-24T09:16:53;12.90;52.70
70734;DHT22;58320;48.804;9.252;2023-04-24T09:19:18;12.50;54.10
70734;DHT22;58320;48.804;9.252;2023-04-24T09:21:47;12.10;55.30
70734;DHT22;58320;48.804;9.252;2023-04-24T09:24:19;11.90;56.60
70734;DHT22;58320;48.804;9.252;2023-04-24T09:26:48;11.70;57.10
70734;DHT22;58320;48.804;9.252;2023-04-24T09:29:16;11.50;58.30
70734;DHT22;58320;48.804;9.252;2023-04-24T09:31:42;11.40;59.80
70734;DHT22;58320;48.804;9.252;2023-04-24T09:34:09;11.20;61.30
70734;DHT22;58320;48.804;9.252;2023-04-24T09:36:37;11.10;63.00
70734;DHT22;58320;48.804;9.252;2023-04-24T09:39:12;10.80;66.20
70734;DHT22;58320;48.804;9.252;2023-04-24T09:44:18;10.30;68.60
70734;DHT22;58320;48.804;9.252;2023-04-24T09:46:59;10.40;65.80
70734;DHT22;58320;48.804;9.252;2023-04-24T09:49:29;10.50;65.60
70734;DHT22;58320;48.804;9.252;2023-04-24T09:52:09;10.70;64.70
70734;DHT22;58320;48.804;9.252;2023-04-24T09:54:36;11.20;62.80
70734;DHT22;58320;48.804;9.252;2023-04-24T09:57:02;11.80;61.30
70734;DHT22;58320;48.804;9.252;2023-04-24T09:59:28;12.30;59.20
70734;DHT22;58320;48.804;9.252;2023-04-24T10:01:55;12.40;55.60
70734;DHT22;58320;48.804;9.252;2023-04-24T10:04:27;12.40;55.60
70734;DHT22;58320;48.804;9.252;2023-04-24T10:06:55;12.30;56.30
70734;DHT22;58320;48.804;9.252;2023-04-24T10:09:25;12.20;56.50
70734;DHT22;58320;48.804;9.252;2023-04-24T10:11:54;12.30;56.00
70734;DHT22;58320;48.804;9.252;2023-04-24T10:14:22;12.40;54.10
70734;DHT22;58320;48.804;9.252;2023-04-24T10:16:50;12.30;53.20
70734;DHT22;58320;48.804;9.252;2023-04-24T10:19:25;12.20;52.90
70734;DHT22;58320;48.804;9.252;2023-04-24T10:21:52;12.10;52.80
70734;DHT22;58320;48.804;9.252;2023-04-24T10:24:20;12.10;52.70
70734;DHT22;58320;48.804;9.252;2023-04-24T10:26:46;12.50;52.10
70734;DHT22;58320;48.804;9.252;2023-04-24T10:29:17;13.00;50.20
70734;DHT22;58320;48.804;9.252;2023-04-24T10:31:44;13.40;47.50
70734;DHT22;58320;48.804;9.252;2023-04-24T10:34:15;13.80;47.50
70734;DHT22;58320;48.804;9.252;2023-04-24T10:36:46;13.70;46.30
70734;DHT22;58320;48.804;9.252;2023-04-24T10:39:16;13.70;47.30
70734;DHT22;58320;48.804;9.252;2023-04-24T10:41:43;13.50;46.90
70734;DHT22;58320;48.804;9.252;2023-04-24T10:44:13;13.30;47.80
70734;DHT22;58320;48.804;9.252;2023-04-24T10:46:43;13.00;47.40
70734;DHT22;58320;48.804;9.252;2023-04-24T10:49:13;12.70;48.40
70734;DHT22;58320;48.804;9.252;2023-04-24T10:51:48;12.40;48.70
70734;DHT22;58320;48.804;9.252;2023-04-24T10:54:23;12.30;49.90
70734;DHT22;58320;48.804;9.252;2023-04-24T10:56:50;12.40;49.70
70734;DHT22;58320;48.804;9.252;2023-04-24T10:59:34;12.60;50.20
70734;DHT22;58320;48.804;9.252;2023-04-24T11:02:00;12.90;49.60
70734;DHT22;58320;48.804;9.252;2023-04-24T11:04:30;12.90;49.30
70734;DHT22;58320;48.804;9.252;2023-04-24T11:06:57;12.90;48.70
70734;DHT22;58320;48.804;9.252;2023-04-24T11:09:27;12.90;48.90
70734;DHT22;58320;48.804;9.252;2023-04-24T11:12:04;12.70;49.70
70734;DHT22;58320;48.804;9.252;2023-04-24T11:17:30;12.40;50.40
70734;DHT22;58320;48.804;9.252;2023-04-24T11:20:10;12.40;51.30
70734;DHT22;58320;48.804;9.252;2023-04-24T11:22:39;12.20;51.40
70734;DHT22;58320;48.804;9.252;2023-04-24T11:25:09;12.30;52.00
70734;DHT22;58320;48.804;9.252;2023-04-24T11:27:44;12.40;51.30
70734;DHT22;58320;48.804;9.252;2023-04-24T11:30:11;12.50;50.70
70734;DHT22;58320;48.804;9.252;2023-04-24T11:32:41;12.80;50.00
70734;DHT22;58320;48.804;9.252;2023-04-24T11:35:18;13.10;48.90
70734;DHT22;58320;48.804;9.252;2023-04-24T11:37:49;13.20;48.70
70734;DHT22;58320;48.804;9.252;2023-04-24T11:40:17;13.40;47.90
70734;DHT22;58320;48.804;9.252;2023-04-24T11:42:49;13.40;48.70
70734;DHT22;58320;48.804;9.252;2023-04-24T11:45:24;13.50;47.20
70734;DHT22;58320;48.804;9.252;2023-04-24T11:47:52;13.60;47.60
70734;DHT22;58320;48.804;9.252;2023-04-24T11:50:20;13.70;47.90
70734;DHT22;58320;48.804;9.252;2023-04-24T11:52:49;13.70;48.50
70734;DHT22;58320;48.804;9.252;2023-04-24T11:57:45;13.10;49.10
70734;DHT22;58320;48.804;9.252;2023-04-24T12:00:17;12.70;50.50
70734;DHT22;58320;48.804;9.252;2023-04-24T12:02:47;12.40;51.80
70734;DHT22;58320;48.804;9.252;2023-04-24T12:05:39;12.30;55.60
70734;DHT22;58320;48.804;9.252;2023-04-24T12:08:05;12.20;55.90
70734;DHT22;58320;48.804;9.252;2023-04-24T12:10:32;12.60;54.00
70734;DHT22;58320;48.804;9.252;2023-04-24T12:12:59;13.00;54.20
70734;DHT22;58320;48.804;9.252;2023-04-24T12:15:26;13.50;50.00
70734;DHT22;58320;48.804;9.252;2023-04-24T12:17:53;13.40;48.90
70734;DHT22;58320;48.804;9.252;2023-04-24T12:20:31;13.30;49.60
70734;DHT22;58320;48.804;9.252;2023-04-24T12:22:59;13.10;50.40
70734;DHT22;58320;48.804;9.252;2023-04-24T12:25:27;13.00;51.00
70734;DHT22;58320;48.804;9.252;2023-04-24T12:28:14;13.00;50.90
70734;DHT22;58320;48.804;9.252;2023-04-24T12:30:46;12.70;50.90
70734;DHT22;58320;48.804;9.252;2023-04-24T12:33:20;12.50;51.30
70734;DHT22;58320;48.804;9.252;2023-04-24T12:35:48;12.40;52.30
70734;DHT22;58320;48.804;9.252;2023-04-24T12:38:22;12.60;51.40
70734;DHT22;58320;48.804;9.252;2023-04-24T12:41:08;12.80;50.90
70734;DHT22;58320;48.804;9.252;2023-04-24T12:43:35;12.90;51.40
70734;DHT22;58320;48.804;9.252;2023-04-24T12:46:01;12.80;50.10
70734;DHT22;58320;48.804;9.252;2023-04-24T12:48:28;12.60;50.60
70734;DHT22;58320;48.804;9.252;2023-04-24T12:50:54;12.50;50.70
70734;DHT22;58320;48.804;9.252;2023-04-24T12:53:20;12.70;51.30
70734;DHT22;58320;48.804;9.252;2023-04-24T12:55:46;13.00;49.70
70734;DHT22;58320;48.804;9.252;2023-04-24T12:58:20;12.90;50.20
70734;DHT22;58320;48.804;9.252;2023-04-24T13:00:47;12.60;50.60
70734;DHT22;58320;48.804;9.252;2023-04-24T13:03:13;12.40;51.10
70734;DHT22;58320;48.804;9.252;2023-04-24T13:05:39;12.30;51.60
70734;DHT22;58320;48.804;9.252;2023-04-24T13:08:05;12.10;52.20
70734;DHT22;58320;48.804;9.252;2023-04-24T13:10:31;12.00;56.70
70734;DHT22;58320;48.804;9.252;2023-04-24T13:12:57;11.10;65.70
70734;DHT22;58320;48.804;9.252;2023-04-24T13:15:23;10.30;73.50
70734;DHT22;58320;48.804;9.252;2023-04-24T13:17:50;9.90;78.40
70734;DHT22;58320;48.804;9.252;2023-04-24T13:20:15;9.90;81.70
70734;DHT22;58320;48.804;9.252;2023-04-24T13:22:41;10.30;81.60
70734;DHT22;58320;48.804;9.252;2023-04-24T13:25:07;11.60;81.10
70734;DHT22;58320;48.804;9.252;2023-04-24T13:27:34;13.00;72.20
70734;DHT22;58320;48.804;9.252;2023-04-24T13:30:00;13.50;65.20
70734;DHT22;58320;48.804;9.252;2023-04-24T13:32:25;13.40;62.80
70734;DHT22;58320;48.804;9.252;2023-04-24T13:34:52;13.30;58.00
70734;DHT22;58320;48.804;9.252;2023-04-24T13:37:17;13.10;58.10
70734;DHT22;58320;48.804;9.252;2023-04-24T13:39:43;13.20;57.90
70734;DHT22;58320;48.804;9.252;2023-04-24T13:42:09;13.30;56.00
70734;DHT22;58320;48.804;9.252;2023-04-24T13:44:35;13.30;55.70
70734;DHT22;58320;48.804;9.252;2023-04-24T13:47:01;13.40;55.50
70734;DHT22;58320;48.804;9.252;2023-04-24T13:49:27;13.30;56.50
70734;DHT22;58320;48.804;9.252;2023-04-24T13:51:54;13.20;56.70
70734;DHT22;58320;48.804;9.252;2023-04-24T13:54:21;13.10;56.80
70734;DHT22;58320;48.804;9.252;2023-04-24T13:56:48;12.80;54.90
70734;DHT22;58320;48.804;9.252;2023-04-24T13:59:15;12.50;56.00
70734;DHT22;58320;48.804;9.252;2023-04-24T14:01:40;11.90;63.00
70734;DHT22;58320;48.804;9.252;2023-04-24T14:04:07;11.00;69.70
70734;DHT22;58320;48.804;9.252;2023-04-24T14:06:32;10.50;73.80
70734;DHT22;58320;48.804;9.252;2023-04-24T14:08:58;10.20;74.80
70734;DHT22;58320;48.804;9.252;2023-04-24T14:11:26;10.40;76.00
70734;DHT22;58320;48.804;9.252;2023-04-24T14:13:51;10.90;72.00
70734;DHT22;58320;48.804;9.252;2023-04-24T14:16:17;11.50;67.70
70734;DHT22;58320;48.804;9.252;2023-04-24T14:18:43;12.30;66.50
70734;DHT22;58320;48.804;9.252;2023-04-24T14:21:09;13.20;61.70
70734;DHT22;58320;48.804;9.252;2023-04-24T14:23:34;14.20;56.70
70734;DHT22;58320;48.804;9.252;2023-04-24T14:26:00;14.80;55.80
70734;DHT22;58320;48.804;9.252;2023-04-24T14:28:26;14.50;54.60
70734;DHT22;58320;48.804;9.252;2023-04-24T14:30:52;14.80;55.60
70734;DHT22;58320;48.804;9.252;2023-04-24T14:33:18;15.00;52.10
70734;DHT22;58320;48.804;9.252;2023-04-24T14:35:44;15.40;52.40
70734;DHT22;58320;48.804;9.252;2023-04-24T14:38:11;15.30;50.30
70734;DHT22;58320;48.804;9.252;2023-04-24T14:40:37;15.00;50.30
70734;DHT22;58320;48.804;9.252;2023-04-24T14:43:03;14.90;51.50
70734;DHT22;58320;48.804;9.252;2023-04-24T14:45:29;15.30;48.90
70734;DHT22;58320;48.804;9.252;2023-04-24T14:47:55;15.60;48.60
70734;DHT22;58320;48.804;9.252;2023-04-24T14:50:21;15.60;48.10
70734;DHT22;58320;48.804;9.252;2023-04-24T14:52:47;14.60;50.20
70734;DHT22;58320;48.804;9.252;2023-04-24T14:55:13;13.70;53.00
70734;DHT22;58320;48.804;9.252;2023-04-24T14:57:39;13.00;54.00
70734;DHT22;58320;48.804;9.252;2023-04-24T15:00:06;12.90;55.30
70734;DHT22;58320;48.804;9.252;2023-04-24T15:02:35;13.10;54.40
70734;DHT22;58320;48.804;9.252;2023-04-24T15:05:05;13.30;54.10
70734;DHT22;58320;48.804;9.252;2023-04-24T15:07:32;14.20;52.10
70734;DHT22;58320;48.804;9.252;2023-04-24T15:09:58;14.90;50.60
70734;DHT22;58320;48.804;9.252;2023-04-24T15:12:25;15.90;48.70
70734;DHT22;58320;48.804;9.252;2023-04-24T15:14:51;16.70;47.50
70734;DHT22;58320;48.804;9.252;2023-04-24T15:17:17;16.70;46.20
70734;DHT22;58320;48.804;9.252;2023-04-24T15:19:43;15.60;48.40
70734;DHT22;58320;48.804;9.252;2023-04-24T15:22:10;14.40;50.70
70734;DHT22;58320;48.804;9.252;2023-04-24T15:24:35;13.50;52.90
70734;DHT22;58320;48.804;9.252;2023-04-24T15:27:01;13.00;53.50
70734;DHT22;58320;48.804;9.252;2023-04-24T15:29:28;12.70;54.70
70734;DHT22;58320;48.804;9.252;2023-04-24T15:31:54;12.50;54.60
70734;DHT22;58320;48.804;9.252;2023-04-24T15:34:20;12.40;54.40
70734;DHT22;58320;48.804;9.252;2023-04-24T15:36:46;12.20;54.90
70734;DHT22;58320;48.804;9.252;2023-04-24T15:39:12;11.90;56.10